Time;durP1;ratioP1;P1;durP2;ratioP2;P2;SDS_P1;SDS_P2;PMS_P1;PMS_P2;Temp;Humidity;BMP_temperature;BMP_pressure;BME280_temperature;BME280_humidity;BME280_pressure;Samples;Min_cycle;Max_cycle;Signal;HPM_P1;HPM_P2
2022/06/10 00:01:02;;;;;;;4.07;1.40;;;16.30;99.90;;;;;;4951549;28;20097;-84
2022/06/10 00:03:28;;;;;;;8.52;1.70;;;16.30;99.90;;;;;;4961599;28;20023;-85
2022/06/10 00:05:58;;;;;;;6.32;1.45;;;16.30;99.90;;;;;;4960365;28;20026;-84
2022/06/10 00:08:30;;;;;;;3.88;1.77;;;16.30;99.90;;;;;;4958891;28;20027;-85
2022/06/10 00:10:57;;;;;;;5.68;1.17;;;16.30;99.90;;;;;;4936041;29;20043;-85
2022/06/10 00:13:26;;;;;;;10.52;1.60;;;16.30;99.90;;;;;;4941385;29;20051;-85
2022/06/10 00:15:55;;;;;;;5.93;1.50;;;16.20;99.90;;;;;;4955248;28;20038;-84
2022/06/10 00:18:24;;;;;;;9.18;2.00;;;16.20;99.90;;;;;;4940949;29;20478;-85
2022/06/10 00:20:51;;;;;;;11.80;1.75;;;16.20;99.90;;;;;;4954443;29;20031;-84
2022/06/10 00:23:17;;;;;;;5.15;1.77;;;16.20;99.90;;;;;;4923244;29;20395;-84
2022/06/10 00:25:45;;;;;;;7.22;1.50;;;16.20;99.90;;;;;;4937190;29;20119;-85
2022/06/10 00:28:12;;;;;;;8.18;1.40;;;16.10;99.90;;;;;;4954886;28;20037;-85
2022/06/10 00:30:38;;;;;;;5.10;1.63;;;16.10;99.90;;;;;;4954694;29;20035;-85
2022/06/10 00:33:04;;;;;;;3.15;1.23;;;16.10;99.90;;;;;;4948818;28;20036;-85
2022/06/10 00:35:30;;;;;;;10.07;1.63;;;16.00;99.90;;;;;;4954376;28;20038;-85
2022/06/10 00:37:56;;;;;;;7.13;1.33;;;16.00;99.90;;;;;;4935852;29;20483;-86
2022/06/10 00:40:37;;;;;;;5.15;1.25;;;15.90;99.90;;;;;;4972695;28;20027;-86
2022/06/10 00:43:03;;;;;;;6.18;1.75;;;15.80;99.90;;;;;;4961454;28;20471;-85
2022/06/10 00:46:11;;;;;;;3.17;1.17;;;15.80;99.90;;;;;;4942291;28;20086;-86
2022/06/10 00:48:57;;;;;;;6.93;1.73;;;15.70;99.90;;;;;;4955734;28;20023;-85
2022/06/10 00:51:49;;;;;;;5.93;1.75;;;15.60;99.90;;;;;;4960456;28;20090;-85
2022/06/10 00:54:35;;;;;;;6.05;1.30;;;15.50;99.90;;;;;;4951067;28;20011;-85
2022/06/10 00:57:21;;;;;;;5.55;1.52;;;15.40;99.90;;;;;;4943463;28;20472;-85
2022/06/10 01:00:08;;;;;;;;;;;15.30;99.90;;;;;;4935536;29;20419;-85
2022/06/10 01:02:35;;;;;;;5.95;1.35;;;15.20;99.90;;;;;;4953672;29;19911;-84
2022/06/10 01:05:09;;;;;;;4.63;1.23;;;15.10;99.90;;;;;;4936794;29;20035;-85
2022/06/10 01:07:40;;;;;;;8.02;1.58;;;15.10;99.90;;;;;;4954602;29;20035;-85
2022/06/10 01:10:12;;;;;;;8.05;1.77;;;15.00;99.90;;;;;;4941395;29;20492;-85
2022/06/10 01:13:06;;;;;;;2.50;1.08;;;14.90;99.90;;;;;;4918236;29;20034;-85
2022/06/10 01:15:37;;;;;;;4.22;1.17;;;14.80;99.90;;;;;;4935273;29;20375;-85
2022/06/10 01:18:32;;;;;;;2.95;1.15;;;14.80;99.90;;;;;;4935488;29;20028;-85
2022/06/10 01:21:21;;;;;;;4.85;1.35;;;14.70;99.90;;;;;;4949649;28;20028;-85
2022/06/10 01:24:18;;;;;;;10.45;1.65;;;14.70;99.90;;;;;;4935294;29;20396;-85
2022/06/10 01:30:08;;;;;;;7.50;1.45;;;14.70;99.90;;;;;;4953899;29;20533;-85
2022/06/10 01:33:07;;;;;;;4.35;1.38;;;14.60;99.90;;;;;;4935176;29;20027;-85
2022/06/10 01:35:38;;;;;;;7.30;2.17;;;14.60;99.90;;;;;;4951704;28;20083;-84
2022/06/10 01:38:34;;;;;;;7.45;1.77;;;14.50;99.90;;;;;;4957259;28;20028;-85
2022/06/10 01:41:20;;;;;;;5.55;1.25;;;14.50;99.90;;;;;;4938609;29;20055;-84
2022/06/10 01:43:53;;;;;;;8.10;1.40;;;14.40;99.90;;;;;;4938270;29;20498;-85
2022/06/10 01:46:34;;;;;;;6.57;1.85;;;14.40;99.90;;;;;;4938781;29;20024;-85
2022/06/10 01:49:24;;;;;;;9.43;1.73;;;14.30;99.90;;;;;;4940756;28;20019;-84
2022/06/10 01:52:27;;;;;;;3.10;1.30;;;14.30;99.90;;;;;;4952199;29;20031;-85
2022/06/10 01:55:26;;;;;;;7.82;1.58;;;14.20;99.90;;;;;;4932447;28;20114;-85
2022/06/10 01:58:13;;;;;;;3.05;1.42;;;14.20;99.90;;;;;;4957392;28;20488;-85
2022/06/10 02:00:43;;;;;;;5.70;1.65;;;14.10;99.90;;;;;;4942183;29;20383;-84
2022/06/10 02:03:38;;;;;;;3.22;1.40;;;14.10;99.90;;;;;;4940441;28;20032;-85
2022/06/10 02:06:32;;;;;;;9.63;1.87;;;14.10;99.90;;;;;;4932679;29;20034;-86
2022/06/10 02:09:07;;;;;;;8.77;1.90;;;14.00;99.90;;;;;;4957239;29;20361;-85
2022/06/10 02:11:36;;;;;;;13.68;2.50;;;14.10;99.90;;;;;;4939845;29;20031;-85
2022/06/10 02:14:07;;;;;;;7.55;1.70;;;14.10;99.90;;;;;;4938928;29;20027;-85
2022/06/10 02:16:43;;;;;;;8.98;1.55;;;14.10;99.90;;;;;;4956958;29;20467;-85
2022/06/10 02:19:13;;;;;;;13.25;2.90;;;14.00;99.90;;;;;;4957231;29;20093;-84
2022/06/10 02:21:50;;;;;;;7.18;1.85;;;14.00;99.90;;;;;;4939146;29;20023;-85
2022/06/10 02:24:25;;;;;;;7.28;1.90;;;14.10;99.90;;;;;;4957247;29;20097;-85
2022/06/10 02:26:54;;;;;;;7.53;2.00;;;14.00;99.90;;;;;;4956877;29;20094;-85
2022/06/10 02:29:35;;;;;;;11.30;2.90;;;14.00;99.90;;;;;;4956567;29;20495;-85
2022/06/10 02:32:01;;;;;;;11.27;2.28;;;14.00;99.90;;;;;;4939546;29;20058;-85
2022/06/10 02:34:27;;;;;;;3.08;1.52;;;13.90;99.90;;;;;;4956906;29;20058;-85
2022/06/10 02:37:14;;;;;;;4.70;1.52;;;14.00;99.90;;;;;;4933273;29;20024;-85
2022/06/10 02:40:02;;;;;;;5.03;1.33;;;14.00;99.90;;;;;;4936493;29;20023;-86
2022/06/10 02:43:10;;;;;;;9.77;1.90;;;13.90;99.90;;;;;;4937444;29;20083;-85
2022/06/10 02:49:07;;;;;;;4.70;1.58;;;13.80;99.90;;;;;;4960867;28;20181;-85
2022/06/10 02:51:35;;;;;;;5.93;2.00;;;13.80;99.90;;;;;;4920428;29;20032;-85
2022/06/10 02:54:04;;;;;;;3.80;1.67;;;13.80;99.90;;;;;;4948800;29;20035;-85
2022/06/10 02:56:30;;;;;;;3.83;1.50;;;13.80;99.90;;;;;;4939417;29;20027;-85
2022/06/10 03:02:16;;;;;;;8.00;1.42;;;13.70;99.90;;;;;;4915700;29;20037;-85
2022/06/10 03:04:58;;;;;;;9.60;1.75;;;13.70;99.90;;;;;;4916134;29;20028;-85
2022/06/10 03:08:08;;;;;;;4.57;1.45;;;13.60;99.90;;;;;;4942772;29;20031;-85
2022/06/10 03:11:00;;;;;;;6.85;1.65;;;13.60;99.90;;;;;;4955948;29;20042;-85
2022/06/10 03:17:15;;;;;;;5.72;1.73;;;13.50;99.90;;;;;;4959451;28;20030;-85
2022/06/10 03:20:12;;;;;;;3.13;1.30;;;13.50;99.90;;;;;;4952197;28;20031;-85
2022/06/10 03:23:02;;;;;;;5.38;1.30;;;13.50;99.90;;;;;;4955951;28;20110;-85
2022/06/10 03:25:43;;;;;;;4.82;1.50;;;13.40;99.90;;;;;;4936703;29;20028;-85
2022/06/10 03:28:14;;;;;;;2.75;1.27;;;13.40;99.90;;;;;;4939614;29;20032;-85
2022/06/10 03:31:19;;;;;;;3.90;1.30;;;13.40;99.90;;;;;;4938074;29;20134;-85
2022/06/10 03:33:53;;;;;;;3.28;1.20;;;13.40;99.90;;;;;;4956192;28;20166;-85
2022/06/10 03:36:23;;;;;;;2.38;1.23;;;13.40;99.90;;;;;;4939371;28;20109;-85
2022/06/10 03:38:54;;;;;;;4.20;1.63;;;13.40;99.90;;;;;;4927605;29;20061;-85
2022/06/10 03:41:30;;;;;;;4.68;1.73;;;13.40;99.90;;;;;;4937294;29;20027;-85
2022/06/10 03:43:57;;;;;;;1.80;1.23;;;13.40;99.90;;;;;;4954952;28;20476;-85
2022/06/10 03:46:27;;;;;;;4.30;1.30;;;13.40;99.90;;;;;;4938326;28;20035;-85
2022/06/10 03:48:54;;;;;;;6.07;1.42;;;13.40;99.90;;;;;;4955385;29;20031;-85
2022/06/10 03:51:22;;;;;;;7.03;1.58;;;13.40;99.90;;;;;;4952521;29;20078;-86
2022/06/10 03:53:47;;;;;;;2.22;1.20;;;13.40;99.90;;;;;;4937816;29;20049;-86
2022/06/10 03:56:21;;;;;;;6.25;1.70;;;13.40;99.90;;;;;;4961562;28;20020;-86
2022/06/10 03:59:10;;;;;;;6.80;1.23;;;13.40;99.90;;;;;;4949762;29;20030;-86
2022/06/10 04:01:36;;;;;;;5.57;1.58;;;13.40;99.90;;;;;;4944291;28;20541;-86
2022/06/10 04:04:04;;;;;;;4.90;1.15;;;13.40;99.90;;;;;;4938012;29;20027;-85
2022/06/10 04:06:31;;;;;;;4.03;1.52;;;13.40;99.90;;;;;;4938225;29;20431;-85
2022/06/10 04:09:04;;;;;;;1.90;1.20;;;13.50;99.90;;;;;;4952786;29;20031;-86
2022/06/10 04:11:29;;;;;;;4.38;1.50;;;13.50;99.90;;;;;;4938998;29;20526;-86
2022/06/10 04:14:13;;;;;;;7.70;2.70;;;13.50;99.90;;;;;;4936945;29;20027;-86
2022/06/10 04:16:39;;;;;;;7.88;2.47;;;13.60;99.90;;;;;;4955175;29;20086;-86
2022/06/10 04:19:13;;;;;;;5.90;2.30;;;13.60;99.90;;;;;;4954731;29;20023;-85
2022/06/10 04:21:38;;;;;;;2.92;1.52;;;13.60;99.90;;;;;;4937894;29;20065;-86
2022/06/10 04:24:04;;;;;;;3.58;1.63;;;13.70;99.90;;;;;;4937152;29;20063;-87
2022/06/10 04:26:33;;;;;;;2.55;1.15;;;13.70;99.90;;;;;;4937357;28;20035;-86
2022/06/10 04:28:59;;;;;;;5.15;1.50;;;13.80;99.90;;;;;;4935672;29;20027;-86
2022/06/10 04:31:24;;;;;;;3.38;1.50;;;13.80;99.90;;;;;;4948531;29;20028;-86
2022/06/10 04:33:57;;;;;;;8.63;1.58;;;13.90;99.90;;;;;;4929841;29;20020;-86
2022/06/10 04:36:22;;;;;;;8.73;1.73;;;14.00;99.90;;;;;;4941473;29;20043;-85
2022/06/10 04:38:48;;;;;;;5.20;1.40;;;14.00;99.90;;;;;;4954861;29;20028;-86
2022/06/10 04:41:33;;;;;;;6.97;1.60;;;14.10;99.90;;;;;;4944794;29;20102;-86
2022/06/10 04:43:58;;;;;;;2.95;1.30;;;14.10;99.90;;;;;;4952628;28;20020;-86
2022/06/10 04:46:31;;;;;;;10.10;2.13;;;14.20;99.90;;;;;;4954285;29;20053;-86
2022/06/10 04:49:03;;;;;;;9.90;1.83;;;14.30;99.90;;;;;;4954853;29;20046;-85
2022/06/10 04:51:29;;;;;;;10.32;1.90;;;14.50;99.90;;;;;;4954395;29;20127;-86
2022/06/10 04:54:13;;;;;;;13.07;2.13;;;14.60;99.90;;;;;;4954745;29;20024;-85
2022/06/10 04:56:39;;;;;;;8.32;1.95;;;14.70;99.90;;;;;;4934612;29;20392;-85
2022/06/10 04:59:05;;;;;;;6.60;2.30;;;14.90;99.90;;;;;;4953466;29;20062;-85
2022/06/10 05:01:31;;;;;;;11.15;2.47;;;14.90;99.90;;;;;;4953757;28;20031;-85
2022/06/10 05:03:56;;;;;;;8.05;2.00;;;15.00;99.90;;;;;;4949303;28;20042;-85
2022/06/10 05:06:34;;;;;;;11.77;2.40;;;15.10;99.90;;;;;;4936667;28;20103;-85
2022/06/10 05:09:00;;;;;;;8.60;1.85;;;15.20;99.90;;;;;;4933508;29;20028;-84
2022/06/10 05:11:25;;;;;;;8.32;2.08;;;15.30;99.90;;;;;;4955386;28;20031;-83
2022/06/10 05:13:57;;;;;;;6.40;1.98;;;15.40;99.90;;;;;;4935420;29;20024;-83
2022/06/10 05:16:24;;;;;;;14.88;2.75;;;15.50;99.90;;;;;;4951008;29;20035;-83
2022/06/10 05:18:52;;;;;;;9.02;2.25;;;15.50;99.90;;;;;;4946174;28;20102;-83
2022/06/10 05:21:17;;;;;;;6.95;1.88;;;15.60;99.90;;;;;;4959011;28;20035;-83
2022/06/10 05:23:45;;;;;;;8.68;1.98;;;15.60;99.90;;;;;;4954173;28;20027;-84
2022/06/10 05:26:17;;;;;;;9.85;2.40;;;15.70;99.90;;;;;;4977260;28;20451;-84
2022/06/10 05:28:44;;;;;;;15.82;2.45;;;15.80;99.90;;;;;;4975679;28;20111;-83
2022/06/10 05:31:10;;;;;;;7.05;1.98;;;15.80;99.90;;;;;;4966842;28;20054;-84
2022/06/10 05:36:24;;;;;;;16.83;3.00;;;16.00;99.90;;;;;;4957810;29;20034;-83
2022/06/10 05:38:49;;;;;;;9.52;1.88;;;16.10;99.90;;;;;;4953232;29;20032;-83
2022/06/10 05:43:59;;;;;;;12.90;2.50;;;16.10;99.90;;;;;;4964004;28;20512;-83
2022/06/10 05:46:24;;;;;;;8.88;1.92;;;16.20;99.90;;;;;;4948513;29;20019;-84
2022/06/10 05:48:50;;;;;;;8.63;2.30;;;16.20;99.90;;;;;;4963200;28;20019;-83
2022/06/10 05:51:16;;;;;;;9.55;1.90;;;16.20;99.90;;;;;;4965962;28;20494;-83
2022/06/10 05:53:41;;;;;;;9.82;2.78;;;16.30;99.90;;;;;;4966647;28;20034;-83
2022/06/10 05:56:09;;;;;;;11.07;1.77;;;16.30;99.90;;;;;;4957055;28;20058;-83
2022/06/10 05:58:34;;;;;;;9.40;2.00;;;16.40;99.90;;;;;;4948152;28;20049;-83
2022/06/10 06:01:00;;;;;;;8.45;1.80;;;16.40;99.90;;;;;;4956541;28;20031;-84
2022/06/10 06:03:25;;;;;;;7.00;1.60;;;16.50;99.90;;;;;;4956859;29;20050;-83
2022/06/10 06:05:51;;;;;;;8.35;1.88;;;16.60;99.90;;;;;;4943698;28;20094;-83
2022/06/10 06:08:16;;;;;;;10.13;2.03;;;16.70;99.90;;;;;;4954007;28;20050;-82
2022/06/10 06:10:43;;;;;;;10.40;1.92;;;16.70;99.90;;;;;;4972743;28;20034;-83
2022/06/10 06:13:10;;;;;;;9.02;1.90;;;16.80;99.90;;;;;;4950910;28;20028;-83
2022/06/10 06:15:37;;;;;;;8.60;1.80;;;16.90;99.90;;;;;;4957129;28;20404;-83
2022/06/10 06:18:03;;;;;;;12.75;2.28;;;17.00;99.90;;;;;;4968637;28;20043;-85
2022/06/10 06:20:31;;;;;;;10.50;1.75;;;17.00;99.90;;;;;;4948750;28;20063;-83
2022/06/10 06:22:57;;;;;;;8.13;1.85;;;17.10;99.90;;;;;;4943619;28;20031;-84
2022/06/10 06:25:23;;;;;;;11.25;2.00;;;17.10;99.90;;;;;;4957088;28;20115;-84
2022/06/10 06:27:55;;;;;;;9.63;1.80;;;17.20;99.90;;;;;;4959560;28;20031;-84
2022/06/10 06:30:31;;;;;;;16.23;2.33;;;17.20;99.90;;;;;;4968795;28;20048;-84
2022/06/10 06:32:59;;;;;;;13.80;2.42;;;17.30;99.90;;;;;;4941117;29;20062;-83
2022/06/10 06:35:25;;;;;;;9.75;1.92;;;17.30;99.90;;;;;;4972105;28;20029;-84
2022/06/10 06:37:51;;;;;;;9.50;1.98;;;17.30;99.90;;;;;;4963280;28;20118;-84
2022/06/10 06:40:28;;;;;;;10.07;2.28;;;17.40;99.90;;;;;;4954420;28;20060;-83
2022/06/10 06:42:53;;;;;;;10.27;2.03;;;17.50;99.90;;;;;;4932993;29;20082;-84
2022/06/10 06:45:20;;;;;;;11.13;2.65;;;17.50;99.90;;;;;;4944539;29;20039;-83
2022/06/10 06:47:57;;;;;;;10.43;1.83;;;17.60;99.90;;;;;;4960927;28;20058;-83
2022/06/10 06:50:27;;;;;;;9.40;2.00;;;17.70;99.90;;;;;;4956362;29;20031;-84
2022/06/10 06:52:53;;;;;;;10.75;2.08;;;17.70;99.90;;;;;;4941807;28;20114;-84
2022/06/10 06:55:20;;;;;;;8.73;2.40;;;17.70;99.90;;;;;;4925404;29;20106;-83
2022/06/10 06:57:49;;;;;;;15.15;2.33;;;17.70;99.90;;;;;;4940974;28;20055;-82
2022/06/10 07:00:20;;;;;;;9.18;2.15;;;17.80;99.90;;;;;;4969270;28;20106;-83
2022/06/10 07:02:45;;;;;;;10.35;2.25;;;17.80;99.90;;;;;;4955370;29;20085;-83
2022/06/10 07:05:12;;;;;;;9.75;1.90;;;17.80;99.90;;;;;;4943397;28;20046;-84
2022/06/10 07:07:44;;;;;;;9.68;2.30;;;17.90;99.90;;;;;;4952415;29;20028;-83
2022/06/10 07:10:16;;;;;;;10.88;2.65;;;18.00;99.90;;;;;;4942866;29;20051;-83
2022/06/10 07:12:41;;;;;;;9.02;2.15;;;18.10;99.90;;;;;;4936799;29;20020;-81
2022/06/10 07:15:08;;;;;;;15.60;2.40;;;18.10;99.90;;;;;;4948008;28;20038;-78
2022/06/10 07:17:34;;;;;;;8.93;2.00;;;18.10;99.90;;;;;;4969945;28;20090;-82
2022/06/10 07:20:00;;;;;;;16.10;2.13;;;18.20;99.90;;;;;;4970257;28;20478;-82
2022/06/10 07:22:27;;;;;;;5.57;1.70;;;18.30;99.90;;;;;;4955607;29;20514;-83
2022/06/10 07:24:53;;;;;;;7.95;2.03;;;18.30;99.90;;;;;;4959395;28;20503;-84
2022/06/10 07:27:32;;;;;;;10.07;1.92;;;18.40;99.90;;;;;;4953637;28;20369;-84
2022/06/10 07:29:58;;;;;;;17.10;2.20;;;18.40;99.90;;;;;;4960259;28;20073;-83
2022/06/10 07:32:24;;;;;;;13.90;1.98;;;18.50;99.90;;;;;;4950485;29;20063;-85
2022/06/10 07:34:50;;;;;;;14.98;2.15;;;18.60;99.90;;;;;;4935328;29;20016;-86
2022/06/10 07:37:17;;;;;;;14.23;2.78;;;18.60;99.90;;;;;;4954707;28;20031;-86
2022/06/10 07:39:42;;;;;;;15.23;2.22;;;18.70;99.90;;;;;;4938629;29;20131;-86
2022/06/10 07:42:08;;;;;;;31.30;3.03;;;18.70;99.90;;;;;;4953970;29;20106;-85
2022/06/10 07:44:36;;;;;;;6.28;1.20;;;18.70;99.90;;;;;;4939767;28;20050;-85
2022/06/10 07:47:07;;;;;;;10.07;2.08;;;18.70;99.90;;;;;;4944400;29;20035;-84
2022/06/10 07:49:33;;;;;;;6.70;1.83;;;18.70;99.90;;;;;;4953943;29;20098;-86
2022/06/10 07:51:59;;;;;;;9.70;2.13;;;18.70;99.90;;;;;;4962878;28;20026;-85
2022/06/10 07:54:25;;;;;;;11.32;2.50;;;18.80;99.90;;;;;;4961417;28;20027;-84
2022/06/10 07:56:52;;;;;;;11.23;1.88;;;18.80;99.90;;;;;;4954318;28;20490;-85
2022/06/10 07:59:17;;;;;;;5.68;2.33;;;18.90;99.90;;;;;;4951942;28;20074;-82
2022/06/10 08:01:43;;;;;;;12.63;2.22;;;18.90;99.90;;;;;;4952099;28;20038;-84
2022/06/10 08:04:09;;;;;;;8.32;1.90;;;19.00;99.90;;;;;;4955910;28;20028;-84
2022/06/10 08:06:45;;;;;;;12.25;3.40;;;19.00;99.90;;;;;;4962702;28;20026;-83
2022/06/10 08:09:11;;;;;;;14.07;2.20;;;19.10;99.90;;;;;;4950661;28;20024;-83
2022/06/10 08:11:37;;;;;;;11.23;2.08;;;19.10;99.90;;;;;;4954582;28;20046;-84
2022/06/10 08:14:03;;;;;;;11.52;2.33;;;19.00;99.90;;;;;;4937531;28;20030;-82
2022/06/10 08:16:30;;;;;;;19.10;1.85;;;18.90;99.90;;;;;;4941818;29;20034;-84
2022/06/10 08:18:56;;;;;;;7.53;2.20;;;18.90;99.90;;;;;;4936775;28;20023;-83
2022/06/10 08:22:32;;;;;;;11.30;2.10;;;18.90;99.90;;;;;;4961795;28;20034;-83
2022/06/10 08:24:17;;;;;;;13.63;2.00;;;18.90;99.90;;;;;;4939888;29;20365;-84
2022/06/10 08:26:43;;;;;;;12.07;2.13;;;18.80;99.90;;;;;;4937287;29;20029;-84
2022/06/10 08:29:08;;;;;;;10.70;1.92;;;18.80;99.90;;;;;;4955149;29;20364;-85
2022/06/10 08:31:36;;;;;;;8.10;2.08;;;18.80;99.90;;;;;;4959105;28;20035;-84
2022/06/10 08:34:03;;;;;;;7.90;1.90;;;18.90;99.90;;;;;;4957276;28;20034;-84
2022/06/10 08:36:30;;;;;;;10.68;2.10;;;19.00;99.90;;;;;;4968107;28;20478;-82
2022/06/10 08:38:59;;;;;;;8.85;2.10;;;19.10;99.90;;;;;;4951399;28;20023;-85
2022/06/10 08:42:02;;;;;;;8.75;1.88;;;19.30;99.90;;;;;;4946324;28;20027;-84
2022/06/10 08:44:51;;;;;;;8.57;1.90;;;19.40;99.90;;;;;;4949830;29;20031;-83
2022/06/10 08:47:23;;;;;;;7.60;1.90;;;19.50;99.90;;;;;;4958561;28;20022;-84
2022/06/10 08:50:14;;;;;;;9.00;1.73;;;19.50;99.90;;;;;;4956596;28;20029;-82
2022/06/10 08:53:11;;;;;;;8.70;1.85;;;19.40;99.90;;;;;;4973930;28;20084;-83
2022/06/10 08:55:50;;;;;;;6.38;1.70;;;19.40;99.90;;;;;;4935457;29;20087;-80
2022/06/10 08:58:21;;;;;;;6.10;1.75;;;19.40;99.90;;;;;;4959219;28;20023;-78
2022/06/10 09:00:50;;;;;;;7.50;2.25;;;19.50;99.90;;;;;;4962806;28;20067;-79
2022/06/10 09:03:21;;;;;;;8.82;2.10;;;19.50;99.90;;;;;;4954439;28;20030;-79
2022/06/10 09:05:51;;;;;;;14.75;2.78;;;19.50;99.90;;;;;;4934046;29;20039;-78
2022/06/10 09:08:23;;;;;;;5.60;1.90;;;19.60;99.90;;;;;;4949934;29;20137;-79
2022/06/10 09:10:55;;;;;;;11.65;2.35;;;19.60;99.90;;;;;;4935786;29;20058;-79
2022/06/10 09:13:44;;;;;;;7.38;2.10;;;19.60;99.90;;;;;;4966350;28;20039;-79
2022/06/10 09:16:35;;;;;;;8.40;2.17;;;19.60;99.90;;;;;;4962661;28;20078;-79
2022/06/10 09:19:12;;;;;;;14.23;2.15;;;19.70;99.90;;;;;;4953851;29;20121;-79
2022/06/10 09:21:53;;;;;;;11.13;2.22;;;19.80;99.90;;;;;;4952339;29;20329;-79
2022/06/10 09:24:33;;;;;;;11.82;1.80;;;19.80;99.90;;;;;;4953754;29;20042;-78
2022/06/10 09:27:09;;;;;;;6.78;2.00;;;19.80;99.90;;;;;;4954170;29;20024;-79
2022/06/10 09:29:38;;;;;;;12.13;2.50;;;19.70;99.90;;;;;;4954413;29;20019;-80
2022/06/10 09:32:29;;;;;;;8.13;1.83;;;19.70;99.90;;;;;;4955639;28;20438;-78
2022/06/10 09:35:12;;;;;;;9.70;2.25;;;19.70;99.90;;;;;;4967702;28;20479;-79
2022/06/10 09:37:51;;;;;;;9.77;2.03;;;19.80;99.90;;;;;;4956552;28;20030;-78
2022/06/10 09:40:37;;;;;;;10.38;2.75;;;19.80;99.90;;;;;;4954196;29;20083;-79
2022/06/10 09:43:19;;;;;;;;;;;20.00;99.90;;;;;;4938573;28;20062;-79
2022/06/10 09:46:03;;;;;;;10.68;2.30;;;20.20;99.90;;;;;;4956410;28;20366;-79
2022/06/10 09:48:58;;;;;;;10.18;1.65;;;20.30;99.90;;;;;;4953651;28;20124;-78
2022/06/10 09:51:43;;;;;;;11.48;2.30;;;20.30;99.90;;;;;;4946793;28;20065;-79
2022/06/10 09:54:34;;;;;;;16.27;2.35;;;20.40;99.90;;;;;;4952024;28;20407;-81
2022/06/10 09:57:17;;;;;;;12.43;2.03;;;20.40;99.90;;;;;;4923361;28;20055;-81
2022/06/10 10:00:16;;;;;;;9.52;1.67;;;20.40;99.90;;;;;;4952190;28;20395;-83
2022/06/10 10:03:18;;;;;;;10.80;2.03;;;20.30;99.90;;;;;;4952348;28;20118;-81
2022/06/10 10:06:16;;;;;;;8.73;1.85;;;20.30;99.90;;;;;;4957940;28;20035;-81
2022/06/10 10:09:09;;;;;;;9.15;1.92;;;20.20;99.90;;;;;;4940913;28;20480;-81
2022/06/10 10:12:08;;;;;;;12.38;2.30;;;20.10;99.90;;;;;;4953438;28;20125;-81
2022/06/10 10:14:48;;;;;;;11.15;2.42;;;20.20;99.90;;;;;;4952489;28;20027;-81
2022/06/10 10:17:39;;;;;;;11.77;2.03;;;20.10;99.90;;;;;;4967353;28;20035;-81
2022/06/10 10:20:29;;;;;;;12.02;2.50;;;20.30;99.90;;;;;;4957037;28;20555;-81
2022/06/10 10:23:33;;;;;;;8.38;1.83;;;20.30;99.90;;;;;;4965369;28;20035;-81
2022/06/10 10:25:59;;;;;;;10.88;2.47;;;20.40;99.90;;;;;;4932062;29;20047;-81
2022/06/10 10:28:30;;;;;;;10.77;1.88;;;20.50;99.90;;;;;;4956674;29;20042;-82
2022/06/10 10:31:02;;;;;;;7.18;1.73;;;20.60;99.90;;;;;;4955994;28;20550;-81
2022/06/10 10:33:28;;;;;;;7.72;2.38;;;20.70;99.90;;;;;;4944437;28;20035;-82
2022/06/10 10:35:56;;;;;;;10.07;2.67;;;20.80;99.90;;;;;;4948375;28;20027;-82
2022/06/10 10:38:38;;;;;;;10.90;1.90;;;21.00;99.90;;;;;;4973008;28;20105;-82
2022/06/10 10:41:21;;;;;;;3.97;1.48;;;21.00;97.50;;;;;;4970577;28;20027;-82
2022/06/10 10:43:51;;;;;;;7.30;1.90;;;20.90;95.80;;;;;;4945084;28;20062;-82
2022/06/10 10:46:30;;;;;;;13.25;2.58;;;20.90;96.30;;;;;;4957404;28;20446;-82
2022/06/10 10:48:59;;;;;;;11.77;2.28;;;21.00;88.00;;;;;;4967245;28;20094;-82
2022/06/10 10:51:33;;;;;;;8.30;1.90;;;21.00;87.80;;;;;;4942776;28;20360;-82
2022/06/10 10:54:12;;;;;;;9.73;1.80;;;21.10;87.30;;;;;;4957664;28;20070;-82
2022/06/10 10:56:40;;;;;;;10.43;1.98;;;21.30;85.90;;;;;;4941602;28;20030;-82
2022/06/10 10:59:22;;;;;;;8.23;2.00;;;21.40;81.90;;;;;;4972846;28;20031;-82
2022/06/10 11:01:51;;;;;;;8.25;2.05;;;21.40;87.10;;;;;;4952846;28;20495;-82
2022/06/10 11:04:38;;;;;;;9.02;1.75;;;21.30;91.40;;;;;;4950853;29;20029;-82
2022/06/10 11:07:13;;;;;;;7.88;1.83;;;21.20;86.20;;;;;;4957261;28;20045;-82
2022/06/10 11:09:48;;;;;;;8.88;2.15;;;21.10;88.20;;;;;;4937149;28;20042;-81
2022/06/10 11:12:19;;;;;;;8.20;2.22;;;21.00;90.90;;;;;;4964476;28;20427;-82
2022/06/10 11:14:56;;;;;;;14.63;2.35;;;20.90;90.40;;;;;;4943458;28;20022;-81
2022/06/10 11:17:23;;;;;;;14.30;1.85;;;20.90;89.90;;;;;;4968387;28;20034;-81
2022/06/10 11:19:57;;;;;;;7.53;1.83;;;20.90;92.60;;;;;;4951719;28;20064;-81
2022/06/10 11:22:29;;;;;;;15.55;2.50;;;21.00;92.60;;;;;;4954099;28;20055;-81
2022/06/10 11:25:04;;;;;;;14.52;2.40;;;21.10;86.80;;;;;;4961895;28;20023;-81
2022/06/10 11:27:35;;;;;;;8.88;2.00;;;21.30;81.50;;;;;;4942713;29;20098;-81
2022/06/10 11:30:10;;;;;;;9.07;2.10;;;21.50;80.60;;;;;;4952962;28;20039;-81
2022/06/10 11:32:48;;;;;;;9.90;1.80;;;21.60;84.80;;;;;;4938450;29;20071;-81
2022/06/10 11:35:37;;;;;;;11.68;1.90;;;21.80;74.90;;;;;;4957719;28;20383;-82
2022/06/10 11:38:21;;;;;;;7.90;1.67;;;22.10;69.40;;;;;;4956851;28;20019;-81
2022/06/10 11:40:46;;;;;;;9.98;2.03;;;22.40;67.60;;;;;;4929974;29;20062;-82
2022/06/10 11:43:25;;;;;;;7.13;1.67;;;22.50;65.60;;;;;;4951623;28;20055;-81
2022/06/10 11:46:06;;;;;;;7.25;1.40;;;22.60;67.20;;;;;;4951528;28;20039;-82
2022/06/10 11:48:46;;;;;;;11.48;1.58;;;22.80;63.50;;;;;;4962570;28;20027;-82
2022/06/10 11:51:35;;;;;;;10.05;2.08;;;23.00;71.80;;;;;;4966994;28;20054;-82
2022/06/10 11:54:15;;;;;;;13.80;2.47;;;23.10;63.30;;;;;;4974297;28;20030;-82
2022/06/10 12:00:21;;;;;;;8.32;1.55;;;23.00;61.30;;;;;;4934765;29;20518;-81
2022/06/10 12:03:13;;;;;;;8.90;2.03;;;23.00;59.10;;;;;;4955860;28;20031;-81
2022/06/10 12:06:08;;;;;;;13.18;2.30;;;22.90;56.60;;;;;;4943421;28;20539;-80
2022/06/10 12:08:42;;;;;;;10.30;2.58;;;22.80;59.90;;;;;;4942501;28;20035;-81
2022/06/10 12:11:29;;;;;;;10.57;1.50;;;22.90;56.70;;;;;;4964675;28;20031;-81
2022/06/10 12:14:25;;;;;;;7.05;1.50;;;22.90;56.80;;;;;;4963947;28;20539;-81
2022/06/10 12:16:58;;;;;;;;;;;23.00;54.40;;;;;;4958579;28;20035;-82
2022/06/10 12:19:30;;;;;;;9.23;1.73;;;23.00;55.70;;;;;;4959517;28;20346;-82
2022/06/10 12:21:56;;;;;;;6.65;2.00;;;23.10;53.40;;;;;;4949146;28;20041;-81
2022/06/10 12:24:21;;;;;;;7.25;1.65;;;23.20;53.90;;;;;;4946710;28;20023;-81
2022/06/10 12:27:06;;;;;;;11.60;2.03;;;23.20;55.50;;;;;;4968749;28;20459;-82
2022/06/10 12:29:55;;;;;;;6.90;1.20;;;23.30;57.30;;;;;;4942571;28;20020;-82
2022/06/10 12:32:42;;;;;;;7.30;1.95;;;23.50;56.20;;;;;;4955005;28;20034;-82
2022/06/10 12:35:25;;;;;;;9.63;1.88;;;23.60;59.70;;;;;;4947873;28;20019;-83
2022/06/10 12:38:01;;;;;;;5.57;1.40;;;23.60;60.70;;;;;;4958500;28;20023;-82
2022/06/10 12:40:36;;;;;;;8.13;1.75;;;23.70;55.80;;;;;;4955627;28;20038;-82
2022/06/10 12:43:17;;;;;;;3.40;1.35;;;23.90;48.00;;;;;;4967524;28;20035;-82
2022/06/10 12:45:52;;;;;;;10.02;1.55;;;23.90;50.00;;;;;;4952980;28;20051;-82
2022/06/10 12:48:22;;;;;;;;;;;23.90;50.70;;;;;;4965556;28;20041;-83
2022/06/10 12:51:08;;;;;;;12.52;1.85;;;23.90;51.30;;;;;;4954124;28;19918;-83
2022/06/10 12:53:54;;;;;;;8.60;1.73;;;24.00;51.50;;;;;;4945921;28;20042;-83
2022/06/10 12:56:22;;;;;;;6.03;1.50;;;24.00;51.70;;;;;;4946708;28;20468;-82
2022/06/10 12:59:11;;;;;;;3.72;1.15;;;24.20;47.00;;;;;;4943329;28;20425;-83
2022/06/10 13:01:36;;;;;;;7.43;1.65;;;24.30;49.40;;;;;;4927425;29;20035;-83
2022/06/10 13:04:02;;;;;;;7.63;1.65;;;24.40;52.00;;;;;;4960617;28;20034;-84
2022/06/10 13:06:30;;;;;;;7.30;1.75;;;24.40;50.40;;;;;;4937405;28;20027;-83
2022/06/10 13:09:11;;;;;;;13.02;2.25;;;24.30;51.60;;;;;;4947420;28;20028;-83
2022/06/10 13:11:39;;;;;;;6.32;1.30;;;24.30;51.50;;;;;;4946632;28;20054;-82
2022/06/10 13:14:20;;;;;;;7.65;1.85;;;24.30;50.80;;;;;;4951718;28;20027;-83
2022/06/10 13:16:58;;;;;;;13.35;1.65;;;24.10;50.70;;;;;;4966562;28;20030;-83
2022/06/10 13:19:37;;;;;;;5.60;1.50;;;24.10;49.50;;;;;;4962077;28;20106;-83
2022/06/10 13:22:21;;;;;;;5.05;1.10;;;24.00;49.70;;;;;;4954803;28;20379;-85
2022/06/10 13:24:52;;;;;;;5.90;1.63;;;23.90;53.00;;;;;;4952565;28;20027;-85
2022/06/10 13:27:35;;;;;;;5.38;1.40;;;24.00;52.20;;;;;;4953835;29;20027;-83
2022/06/10 13:30:17;;;;;;;8.30;1.73;;;24.00;52.20;;;;;;4960538;28;20027;-83
2022/06/10 13:32:46;;;;;;;9.57;1.40;;;24.00;50.50;;;;;;4959032;28;20112;-84
2022/06/10 13:35:18;;;;;;;15.93;2.88;;;23.70;50.90;;;;;;4950664;28;20443;-84
2022/06/10 13:38:25;;;;;;;6.88;1.80;;;23.60;50.60;;;;;;4951537;28;20023;-83
2022/06/10 13:43:47;;;;;;;5.10;1.25;;;23.30;54.60;;;;;;4878722;29;20048;-84
2022/06/10 13:46:30;;;;;;;6.10;1.45;;;23.30;57.10;;;;;;4931112;28;20395;-83
2022/06/10 13:49:08;;;;;;;9.35;1.70;;;23.30;55.50;;;;;;4970747;28;20039;-85
2022/06/10 13:51:42;;;;;;;5.18;1.67;;;23.40;55.10;;;;;;4938322;29;20114;-84